Time;durP1;ratioP1;P1;durP2;ratioP2;P2;SDS_P1;SDS_P2;PMS_P1;PMS_P2;Temp;Humidity;BMP_temperature;BMP_pressure;BME280_temperature;BME280_humidity;BME280_pressure;Samples;Min_cycle;Max_cycle;Signal;HPM_P1;HPM_P2
2021/06/08 00:01:40;;;;;;;39.90;34.05;;;18.30;83.20;;;;;;5029783;28;20029;-69
2021/06/08 00:04:06;;;;;;;43.97;33.88;;;18.30;83.10;;;;;;5032541;28;20060;-69
2021/06/08 00:06:31;;;;;;;40.28;32.55;;;18.30;83.10;;;;;;5033018;28;20061;-69
2021/06/08 00:08:57;;;;;;;43.70;34.88;;;18.30;82.90;;;;;;5033564;28;20059;-69
2021/06/08 00:11:22;;;;;;;44.00;33.70;;;18.20;83.40;;;;;;5033591;28;20018;-69
2021/06/08 00:13:49;;;;;;;44.78;35.30;;;18.00;83.70;;;;;;5033700;28;20120;-70
2021/06/08 00:16:15;;;;;;;40.35;33.03;;;18.10;83.70;;;;;;5032877;28;20030;-69
2021/06/08 00:18:41;;;;;;;41.72;32.92;;;18.00;83.70;;;;;;5034714;28;20566;-69
2021/06/08 00:21:07;;;;;;;42.22;32.90;;;18.10;83.70;;;;;;5033435;28;20113;-68
2021/06/08 00:23:33;;;;;;;38.03;32.20;;;18.00;83.50;;;;;;5033687;28;20021;-69
2021/06/08 00:25:59;;;;;;;43.72;34.75;;;18.10;83.50;;;;;;5016812;28;20156;-68
2021/06/08 00:28:24;;;;;;;41.08;34.08;;;18.00;83.50;;;;;;5032768;28;20507;-68
2021/06/08 00:30:50;;;;;;;38.33;31.33;;;18.10;83.10;;;;;;5033352;28;20458;-69
2021/06/08 00:33:15;;;;;;;40.60;33.25;;;18.10;83.20;;;;;;5033054;28;20025;-66
2021/06/08 00:35:41;;;;;;;36.88;31.35;;;18.10;83.00;;;;;;5033326;28;20029;-69
2021/06/08 00:38:07;;;;;;;42.20;34.03;;;18.00;83.20;;;;;;5032419;28;20510;-68
2021/06/08 00:40:33;;;;;;;42.47;33.53;;;18.00;83.30;;;;;;5033199;28;20395;-67
2021/06/08 00:42:58;;;;;;;40.78;33.63;;;18.00;83.50;;;;;;5033055;28;20051;-68
2021/06/08 00:45:24;;;;;;;38.38;32.67;;;17.90;83.40;;;;;;5033013;28;20384;-68
2021/06/08 00:47:51;;;;;;;41.63;33.25;;;17.90;83.70;;;;;;5032236;28;20546;-69
2021/06/08 00:50:16;;;;;;;43.22;35.00;;;17.80;83.70;;;;;;5033094;28;20479;-68
2021/06/08 00:52:42;;;;;;;44.53;34.92;;;17.70;84.00;;;;;;5032783;28;20049;-69
2021/06/08 00:55:13;;;;;;;43.42;33.55;;;17.60;84.30;;;;;;5032939;28;20471;-68
2021/06/08 00:57:38;;;;;;;40.55;34.08;;;17.60;84.40;;;;;;5032054;28;20032;-69
2021/06/08 01:00:06;;;;;;;41.28;35.13;;;17.70;84.10;;;;;;5034103;28;20022;-68
2021/06/08 01:02:34;;;;;;;43.92;34.67;;;;;;;;;;5032547;28;20057;-68
2021/06/08 01:05:01;;;;;;;39.20;31.48;;;;;;;;;;5032585;28;20025;-69
2021/06/08 01:07:27;;;;;;;43.55;33.17;;;;;;;;;;5028686;28;20491;-67
2021/06/08 02:15:22;;;;;;;;;;;17.20;84.60;;;;;;5033551;28;20020;-69
2021/06/08 02:17:50;;;;;;;38.90;30.88;;;17.30;84.30;;;;;;5031993;28;19901;-68
2021/06/08 02:20:26;;;;;;;41.70;31.73;;;17.40;84.00;;;;;;5031433;28;20052;-67
2021/06/08 02:22:57;;;;;;;37.17;30.33;;;17.40;84.00;;;;;;5031264;28;20022;-69
2021/06/08 02:25:26;;;;;;;34.77;29.93;;;17.50;83.60;;;;;;5031864;28;20025;-68
2021/06/08 02:27:54;;;;;;;40.97;31.38;;;17.50;83.60;;;;;;5030069;28;20025;-68
2021/06/08 02:30:21;;;;;;;39.72;30.60;;;17.60;83.20;;;;;;5032521;28;20034;-69
2021/06/08 02:32:48;;;;;;;36.60;28.98;;;17.60;83.00;;;;;;5032361;28;20022;-68
2021/06/08 02:35:15;;;;;;;40.10;30.88;;;17.50;83.30;;;;;;5032440;28;20021;-68
2021/06/08 02:37:41;;;;;;;38.88;28.60;;;17.50;83.30;;;;;;5031384;28;20041;-69
2021/06/08 02:40:08;;;;;;;37.65;28.85;;;17.50;83.30;;;;;;5030970;28;20021;-68
2021/06/08 02:42:35;;;;;;;36.53;28.25;;;17.50;83.30;;;;;;5032194;28;20037;-66
2021/06/08 02:45:01;;;;;;;35.92;29.35;;;17.50;83.30;;;;;;5032140;28;20025;-69
2021/06/08 02:47:27;;;;;;;37.42;29.75;;;17.50;83.10;;;;;;5031357;28;20018;-68
2021/06/08 02:49:56;;;;;;;36.38;28.85;;;17.50;83.30;;;;;;5032075;28;20475;-68
2021/06/08 02:52:22;;;;;;;37.20;29.33;;;17.50;83.40;;;;;;5014092;28;20034;-68
2021/06/08 02:54:51;;;;;;;36.97;28.15;;;17.50;83.20;;;;;;5032009;28;20040;-69
2021/06/08 02:57:17;;;;;;;38.92;28.77;;;17.50;83.00;;;;;;5031098;28;20024;-68
2021/06/08 02:59:45;;;;;;;34.80;27.58;;;17.50;83.00;;;;;;5031727;28;20467;-70
2021/06/08 03:02:13;;;;;;;38.10;29.63;;;17.60;83.00;;;;;;5031875;28;20021;-69
2021/06/08 03:05:01;;;;;;;36.15;28.58;;;17.60;82.70;;;;;;5014183;28;20082;-69
2021/06/08 03:07:30;;;;;;;36.30;30.27;;;17.60;82.90;;;;;;5029872;28;20084;-70
2021/06/08 03:10:12;;;;;;;38.20;30.00;;;17.60;82.90;;;;;;5030366;28;20086;-69
2021/06/08 03:12:46;;;;;;;39.55;28.67;;;17.70;82.50;;;;;;5029728;28;20371;-68
2021/06/08 03:15:16;;;;;;;36.13;29.50;;;17.70;82.60;;;;;;5031651;28;20032;-69
2021/06/08 03:17:44;;;;;;;50.60;34.45;;;17.70;82.40;;;;;;5030717;28;20463;-69
2021/06/08 03:20:45;;;;;;;156.15;104.50;;;17.70;82.50;;;;;;5031627;28;20040;-69
2021/06/08 03:23:13;;;;;;;67.00;45.70;;;17.70;82.50;;;;;;5008737;28;20057;-70
2021/06/08 03:25:42;;;;;;;49.47;35.95;;;17.80;82.20;;;;;;5030297;28;20020;-69
2021/06/08 03:28:10;;;;;;;41.58;32.40;;;17.90;81.90;;;;;;5031091;28;20094;-70
2021/06/08 03:30:36;;;;;;;50.97;35.05;;;17.90;81.80;;;;;;5031518;28;20025;-69
2021/06/08 03:33:02;;;;;;;47.53;32.40;;;18.00;81.30;;;;;;5029986;28;20132;-69
2021/06/08 03:35:29;;;;;;;88.25;66.35;;;18.00;81.10;;;;;;5030212;28;20021;-69
2021/06/08 03:37:56;;;;;;;42.75;30.65;;;18.00;81.10;;;;;;5042605;22;20046;-64
2021/06/08 03:40:24;;;;;;;46.20;34.08;;;18.10;80.90;;;;;;5010496;28;20022;-64
2021/06/08 03:42:51;;;;;;;45.97;33.88;;;18.10;80.60;;;;;;5012223;28;20036;-65
2021/06/08 03:45:17;;;;;;;41.28;30.65;;;18.30;80.10;;;;;;5011849;28;20464;-65
2021/06/08 03:47:45;;;;;;;42.90;30.38;;;18.20;80.20;;;;;;5011019;28;20456;-64
2021/06/08 03:50:15;;;;;;;37.85;29.45;;;18.20;80.00;;;;;;5011911;28;20049;-66
2021/06/08 03:52:43;;;;;;;34.92;28.40;;;18.20;80.00;;;;;;5011500;28;20061;-66
2021/06/08 03:55:09;;;;;;;40.50;29.55;;;18.20;80.00;;;;;;5011654;28;20029;-66
2021/06/08 03:57:43;;;;;;;38.35;30.77;;;18.30;79.40;;;;;;5010764;28;20606;-65
2021/06/08 04:00:09;;;;;;;38.58;28.10;;;18.30;79.60;;;;;;5011847;28;20026;-66
2021/06/08 04:02:40;;;;;;;38.13;29.20;;;18.40;79.20;;;;;;5011520;28;20025;-67
2021/06/08 04:05:10;;;;;;;37.13;27.90;;;18.30;79.30;;;;;;5011656;28;20053;-66
2021/06/08 04:07:38;;;;;;;34.75;28.10;;;18.40;79.10;;;;;;5010778;28;20021;-67
2021/06/08 04:10:05;;;;;;;38.33;28.83;;;18.50;78.70;;;;;;5030066;28;20029;-67
2021/06/08 04:12:31;;;;;;;33.25;26.85;;;18.50;78.40;;;;;;5029504;28;20124;-67
2021/06/08 04:14:57;;;;;;;36.78;27.38;;;18.50;78.50;;;;;;5031048;28;20515;-66
2021/06/08 04:17:23;;;;;;;38.35;27.80;;;18.70;77.60;;;;;;5029214;28;20098;-67
2021/06/08 04:19:49;;;;;;;32.97;26.15;;;18.70;77.30;;;;;;5031254;28;20064;-67
2021/06/08 04:22:31;;;;;;;34.78;26.50;;;18.70;77.40;;;;;;5031083;28;20017;-65
2021/06/08 04:24:57;;;;;;;48.90;28.33;;;18.90;77.10;;;;;;5030906;28;20105;-66
2021/06/08 04:27:27;;;;;;;35.47;26.50;;;18.80;77.00;;;;;;5029951;28;20013;-66
2021/06/08 04:29:54;;;;;;;33.75;26.52;;;18.80;77.10;;;;;;5031161;28;20017;-64
2021/06/08 04:32:20;;;;;;;44.70;27.27;;;18.80;76.90;;;;;;5029902;28;20459;-66
2021/06/08 04:34:51;;;;;;;37.95;27.42;;;18.90;76.60;;;;;;5030742;28;20026;-65
2021/06/08 04:37:17;;;;;;;29.77;25.13;;;18.90;76.50;;;;;;5030107;28;20056;-65
2021/06/08 04:39:43;;;;;;;34.50;27.15;;;18.90;76.60;;;;;;5029771;28;20467;-65
2021/06/08 04:42:11;;;;;;;30.92;25.27;;;18.90;76.40;;;;;;5030010;28;20033;-66
2021/06/08 04:44:41;;;;;;;33.50;26.98;;;18.90;76.40;;;;;;5030965;28;20017;-66
2021/06/08 04:47:07;;;;;;;34.88;24.67;;;19.00;76.00;;;;;;5030003;28;20014;-65
2021/06/08 04:49:32;;;;;;;30.65;22.77;;;19.10;75.80;;;;;;5032587;28;20032;-65
2021/06/08 04:51:58;;;;;;;33.70;23.20;;;19.70;74.60;;;;;;5033387;28;20356;-67
2021/06/08 04:54:24;;;;;;;26.60;21.80;;;;;;;;;;5033932;28;20038;-66
2021/06/08 04:56:50;;;;;;;27.92;21.33;;;21.60;68.10;;;;;;5033419;28;20021;-67
2021/06/08 04:59:22;;;;;;;25.42;20.02;;;22.80;63.60;;;;;;5034324;28;20523;-66
2021/06/08 05:01:49;;;;;;;23.60;17.55;;;24.30;58.10;;;;;;5034316;28;20060;-67
2021/06/08 05:04:18;;;;;;;17.85;15.98;;;25.40;54.30;;;;;;5034252;28;20029;-66
2021/06/08 05:06:48;;;;;;;21.00;17.30;;;25.90;52.80;;;;;;5032916;28;20060;-66
2021/06/08 05:09:21;;;;;;;22.27;16.35;;;26.20;50.40;;;;;;5031150;28;20029;-67
2021/06/08 05:11:53;;;;;;;21.52;15.40;;;26.60;49.40;;;;;;5027111;28;20076;-68
2021/06/08 05:14:20;;;;;;;16.58;14.82;;;27.00;48.20;;;;;;5033311;28;20025;-66
2021/06/08 05:16:47;;;;;;;23.65;18.48;;;26.80;48.00;;;;;;5027446;28;20021;-67
2021/06/08 05:19:14;;;;;;;20.13;16.30;;;27.20;46.50;;;;;;5033351;28;20409;-66
2021/06/08 05:21:44;;;;;;;17.92;16.00;;;27.50;45.80;;;;;;5032406;28;20031;-66
2021/06/08 05:24:15;;;;;;;19.83;16.77;;;27.90;45.10;;;;;;5033337;28;20022;-67
2021/06/08 05:26:48;;;;;;;15.70;14.10;;;28.80;43.30;;;;;;5032818;28;20048;-67
2021/06/08 05:29:19;;;;;;;22.20;16.85;;;28.70;42.80;;;;;;5033605;28;20025;-68
2021/06/08 05:31:45;;;;;;;22.83;16.48;;;28.70;42.80;;;;;;5029967;28;20018;-68
2021/06/08 05:34:12;;;;;;;19.55;16.63;;;29.60;40.30;;;;;;5033100;28;20017;-68
2021/06/08 05:36:40;;;;;;;20.48;16.15;;;29.20;41.20;;;;;;5032638;28;20045;-67
2021/06/08 05:39:07;;;;;;;15.57;13.98;;;29.70;40.50;;;;;;5033414;28;20025;-67
2021/06/08 05:41:32;;;;;;;17.73;14.85;;;28.80;42.10;;;;;;5033540;28;20024;-66
2021/06/08 05:43:58;;;;;;;18.50;16.48;;;28.10;43.70;;;;;;5032287;28;20029;-67
2021/06/08 05:46:28;;;;;;;18.27;15.93;;;28.10;43.80;;;;;;5032354;28;20017;-66
2021/06/08 05:48:54;;;;;;;17.27;15.52;;;27.20;45.30;;;;;;5031390;28;20030;-66
2021/06/08 05:51:21;;;;;;;20.98;16.80;;;26.40;47.80;;;;;;5032820;28;20382;-67
2021/06/08 05:53:47;;;;;;;21.35;15.43;;;25.80;49.30;;;;;;5033130;28;20478;-67
2021/06/08 05:56:13;;;;;;;23.55;18.15;;;25.60;50.10;;;;;;5032503;28;20032;-67
2021/06/08 05:58:41;;;;;;;20.80;17.05;;;25.70;49.60;;;;;;5032795;28;20119;-67
2021/06/08 06:01:10;;;;;;;21.63;17.17;;;26.20;48.70;;;;;;5030238;28;20026;-67
2021/06/08 06:03:37;;;;;;;22.60;18.95;;;26.60;47.30;;;;;;5033072;28;20022;-67
2021/06/08 06:06:04;;;;;;;19.08;16.27;;;25.80;48.70;;;;;;5031049;28;20034;-66
2021/06/08 06:08:31;;;;;;;20.50;16.98;;;25.90;49.40;;;;;;5031195;28;20052;-67
2021/06/08 06:10:59;;;;;;;21.73;17.85;;;26.00;49.10;;;;;;5029792;28;20022;-66
2021/06/08 06:13:32;;;;;;;19.55;16.92;;;27.20;45.70;;;;;;5024312;28;20018;-66
2021/06/08 06:15:58;;;;;;;21.90;17.35;;;28.00;44.60;;;;;;5031651;28;20463;-66
2021/06/08 06:18:24;;;;;;;20.50;16.05;;;28.90;41.40;;;;;;5028824;28;20349;-66
2021/06/08 06:20:52;;;;;;;19.13;15.88;;;28.70;42.30;;;;;;5030214;28;20063;-67
2021/06/08 06:23:19;;;;;;;21.58;16.73;;;28.60;42.60;;;;;;5031185;28;20013;-66
2021/06/08 06:25:46;;;;;;;19.42;15.35;;;29.40;40.70;;;;;;5030879;28;20037;-67
2021/06/08 06:28:13;;;;;;;19.70;16.63;;;29.80;40.30;;;;;;5029707;28;20040;-67
2021/06/08 06:30:42;;;;;;;19.08;16.95;;;29.60;39.40;;;;;;5031138;28;20029;-67
2021/06/08 06:33:07;;;;;;;17.67;15.32;;;28.50;42.20;;;;;;5030649;28;20056;-67
2021/06/08 06:35:34;;;;;;;19.10;16.25;;;29.00;41.50;;;;;;5031476;28;20053;-67
2021/06/08 06:38:01;;;;;;;18.92;16.88;;;30.30;38.70;;;;;;5031335;28;20029;-67
2021/06/08 06:40:29;;;;;;;16.65;14.95;;;31.70;35.70;;;;;;5032117;28;20013;-67
2021/06/08 06:43:01;;;;;;;17.73;15.60;;;32.80;34.30;;;;;;5030738;28;20017;-67
2021/06/08 06:45:28;;;;;;;15.98;14.27;;;32.90;34.40;;;;;;5026651;28;20021;-68
2021/06/08 06:48:04;;;;;;;20.10;13.98;;;33.30;34.30;;;;;;5030260;28;20021;-68
2021/06/08 06:50:34;;;;;;;19.02;15.57;;;33.30;34.80;;;;;;5031139;28;20034;-68
2021/06/08 06:53:00;;;;;;;15.93;13.38;;;32.70;33.90;;;;;;5016437;28;20029;-67
2021/06/08 06:55:30;;;;;;;16.05;14.05;;;32.90;34.50;;;;;;5030026;28;20121;-70
2021/06/08 06:57:56;;;;;;;14.95;13.35;;;33.50;33.40;;;;;;5019095;28;20029;-69
2021/06/08 07:00:24;;;;;;;20.90;16.02;;;33.80;32.10;;;;;;5031291;28;20048;-68
2021/06/08 07:02:53;;;;;;;17.90;13.88;;;33.50;32.60;;;;;;5031558;28;20489;-69
2021/06/08 07:05:22;;;;;;;14.75;12.98;;;34.20;32.20;;;;;;5031852;28;20064;-69
2021/06/08 07:07:49;;;;;;;18.10;13.73;;;34.40;32.00;;;;;;5029361;28;20029;-68
2021/06/08 07:10:17;;;;;;;16.58;13.75;;;34.70;32.80;;;;;;5029653;28;20024;-69
2021/06/08 07:12:47;;;;;;;14.25;12.75;;;34.60;30.90;;;;;;5029303;28;20116;-69
2021/06/08 07:15:16;;;;;;;17.48;15.05;;;35.00;30.60;;;;;;5023562;28;20101;-69
2021/06/08 07:17:43;;;;;;;17.83;16.02;;;35.50;29.50;;;;;;5009803;28;20028;-68
2021/06/08 07:20:12;;;;;;;18.23;14.10;;;35.50;29.30;;;;;;5027971;28;20067;-69
2021/06/08 07:22:43;;;;;;;51.72;35.85;;;34.60;30.80;;;;;;5024605;28;20632;-68
2021/06/08 07:25:09;;;;;;;45.00;29.10;;;34.20;31.10;;;;;;5011938;28;20022;-69
2021/06/08 07:27:35;;;;;;;50.78;27.90;;;34.40;31.40;;;;;;5009724;28;20116;-68
2021/06/08 07:30:01;;;;;;;44.25;23.65;;;34.40;31.20;;;;;;5031237;28;20028;-69
2021/06/08 07:32:40;;;;;;;35.85;21.30;;;34.60;31.30;;;;;;5030038;28;20029;-69
2021/06/08 07:35:20;;;;;;;17.90;15.13;;;35.30;30.00;;;;;;5030230;28;20022;-68
2021/06/08 07:37:49;;;;;;;40.13;26.48;;;35.40;29.40;;;;;;5030788;28;20620;-68
2021/06/08 07:40:39;;;;;;;53.33;31.15;;;34.90;30.20;;;;;;5031296;28;20013;-68
2021/06/08 07:43:06;;;;;;;16.15;12.57;;;35.20;29.70;;;;;;5031348;28;20028;-69
2021/06/08 07:45:32;;;;;;;23.00;17.23;;;35.70;29.70;;;;;;5031333;28;20493;-67
2021/06/08 07:48:00;;;;;;;37.33;23.92;;;36.30;28.40;;;;;;5025809;28;20028;-67
2021/06/08 07:50:30;;;;;;;23.67;16.33;;;36.50;28.70;;;;;;5011477;28;20018;-67
2021/06/08 07:52:56;;;;;;;;;;;36.40;28.40;;;;;;5011888;28;20076;-67
2021/06/08 07:55:22;;;;;;;37.00;22.58;;;36.70;27.70;;;;;;5019376;28;19905;-67
2021/06/08 07:57:47;;;;;;;18.58;14.52;;;36.10;29.10;;;;;;5028939;28;20014;-68
2021/06/08 08:00:15;;;;;;;29.25;19.58;;;36.40;28.60;;;;;;5031048;28;20076;-67
2021/06/08 08:02:41;;;;;;;45.08;27.58;;;35.90;29.70;;;;;;5029907;28;20047;-68
2021/06/08 08:05:15;;;;;;;20.85;15.98;;;35.70;29.60;;;;;;5031360;28;20083;-67
2021/06/08 08:07:41;;;;;;;17.38;14.85;;;35.90;29.00;;;;;;5030657;28;20045;-69
2021/06/08 08:10:08;;;;;;;31.48;20.98;;;34.40;30.70;;;;;;5026164;28;20109;-68
2021/06/08 08:12:39;;;;;;;19.77;14.77;;;33.70;33.70;;;;;;5017481;28;20021;-70
2021/06/08 08:15:06;;;;;;;19.95;15.32;;;34.40;31.90;;;;;;5010189;28;20022;-69
2021/06/08 08:17:32;;;;;;;17.42;13.27;;;34.40;31.70;;;;;;5010685;28;20468;-68
2021/06/08 08:19:59;;;;;;;17.70;13.27;;;34.80;30.50;;;;;;5010061;28;20105;-68
2021/06/08 08:22:25;;;;;;;18.20;14.50;;;34.40;31.10;;;;;;5017007;28;20067;-68
2021/06/08 08:24:51;;;;;;;16.13;14.43;;;34.10;32.30;;;;;;5032402;28;20022;-68
2021/06/08 08:27:17;;;;;;;14.25;11.88;;;34.60;31.10;;;;;;5034187;28;20132;-68
2021/06/08 08:29:45;;;;;;;25.42;17.98;;;35.10;30.90;;;;;;5035000;28;20043;-68
2021/06/08 08:32:11;;;;;;;22.25;14.88;;;35.00;31.20;;;;;;5031387;28;20483;-66
2021/06/08 08:34:39;;;;;;;19.08;15.32;;;35.30;30.40;;;;;;5015149;28;20040;-67
2021/06/08 08:37:04;;;;;;;20.38;13.63;;;34.50;30.60;;;;;;5014207;28;20021;-67
2021/06/08 08:39:33;;;;;;;21.40;14.63;;;34.00;32.20;;;;;;5018657;28;20017;-68
2021/06/08 08:42:01;;;;;;;25.73;18.52;;;34.50;31.90;;;;;;5034041;28;20064;-67
2021/06/08 08:44:27;;;;;;;15.15;13.30;;;35.00;31.00;;;;;;5035209;28;20036;-68
2021/06/08 08:46:53;;;;;;;28.38;17.40;;;35.00;29.70;;;;;;5032978;28;20475;-67
2021/06/08 08:49:18;;;;;;;17.25;13.20;;;34.20;31.90;;;;;;5034572;28;20017;-68
2021/06/08 08:51:48;;;;;;;16.02;12.52;;;34.30;31.90;;;;;;5027588;28;20467;-66
2021/06/08 08:54:19;;;;;;;16.58;13.23;;;35.20;30.40;;;;;;5012863;28;20700;-66
2021/06/08 08:56:50;;;;;;;;;;;35.10;30.20;;;;;;5013034;28;20018;-67
2021/06/08 09:00:06;;;;;;;17.73;14.60;;;34.90;30.50;;;;;;5019654;28;20355;-69
2021/06/08 09:06:24;;;;;;;18.25;14.20;;;33.60;32.60;;;;;;5033433;28;20124;-68
2021/06/08 09:12:04;;;;;;;12.98;10.25;;;33.50;32.30;;;;;;5035409;28;20074;-67
2021/06/08 09:14:30;;;;;;;;;;;34.00;32.80;;;;;;5034990;28;20036;-67
2021/06/08 09:17:15;;;;;;;;;;;;;;;;;;;;;
2021/06/08 09:20:12;;;;;;;;;;;;;;;;;;;;;
2021/06/08 09:23:13;;;;;;;15.77;13.07;;;34.50;31.90;;;;;;5032227;28;20037;-67
2021/06/08 09:25:59;;;;;;;15.63;12.60;;;34.70;32.00;;;;;;5025151;28;20109;-67
2021/06/08 09:28:25;;;;;;;19.92;14.52;;;34.90;31.70;;;;;;5032668;28;20025;-65
2021/06/08 09:30:58;;;;;;;18.02;12.32;;;34.90;31.40;;;;;;5034391;28;20582;-66
2021/06/08 09:33:30;;;;;;;12.60;11.02;;;35.10;31.40;;;;;;5032433;28;20022;-66
2021/06/08 09:36:05;;;;;;;13.82;12.35;;;35.00;32.30;;;;;;5031971;28;20049;-65
2021/06/08 09:38:42;;;;;;;15.20;13.30;;;35.50;30.50;;;;;;5056030;22;20095;-66
2021/06/08 09:41:18;;;;;;;16.67;13.55;;;34.20;31.20;;;;;;5032878;28;20100;-66
2021/06/08 09:43:56;;;;;;;15.25;11.48;;;33.00;33.40;;;;;;5033082;28;20021;-65
2021/06/08 09:46:25;;;;;;;14.18;11.40;;;32.60;35.40;;;;;;5032352;28;20026;-67
2021/06/08 09:48:53;;;;;;;19.60;14.20;;;33.00;34.00;;;;;;5014383;28;20590;-68
2021/06/08 09:51:19;;;;;;;18.77;15.43;;;32.80;34.10;;;;;;5033046;28;20025;-67
2021/06/08 09:53:44;;;;;;;16.80;12.85;;;32.60;35.10;;;;;;5032781;28;20535;-66
2021/06/08 09:56:10;;;;;;;20.35;15.23;;;32.10;35.40;;;;;;5032224;28;20483;-67
2021/06/08 09:58:51;;;;;;;16.05;13.75;;;31.30;36.60;;;;;;5032524;28;20057;-69
2021/06/08 10:01:27;;;;;;;22.02;14.88;;;30.90;38.20;;;;;;5032812;28;20028;-68
2021/06/08 10:03:57;;;;;;;14.85;13.07;;;30.60;39.40;;;;;;5032369;28;20063;-69
2021/06/08 10:06:34;;;;;;;19.40;13.65;;;30.90;38.80;;;;;;5031971;28;20495;-66
2021/06/08 10:09:10;;;;;;;16.77;14.85;;;31.70;38.40;;;;;;5014957;28;20026;-69
2021/06/08 10:11:38;;;;;;;16.98;14.50;;;31.60;36.30;;;;;;5032693;28;20021;-67
2021/06/08 10:14:18;;;;;;;17.38;14.15;;;30.70;38.50;;;;;;5015038;28;20071;-66
2021/06/08 10:16:45;;;;;;;14.55;12.85;;;31.00;37.80;;;;;;5031663;28;20014;-66
2021/06/08 10:19:23;;;;;;;18.77;12.88;;;30.70;39.10;;;;;;5032561;28;20474;-66
2021/06/08 10:21:49;;;;;;;16.20;13.55;;;30.40;41.00;;;;;;5031908;28;20072;-66
2021/06/08 10:24:17;;;;;;;17.67;14.57;;;30.60;39.80;;;;;;5012940;28;20026;-65
2021/06/08 10:26:47;;;;;;;15.93;13.95;;;;;;;;;;5011959;28;20026;-67
2021/06/08 10:29:14;;;;;;;11.57;10.30;;;;;;;;;;5013070;28;20026;-69
2021/06/08 10:31:41;;;;;;;12.93;11.45;;;;;;;;;;5013000;28;20014;-65
2021/06/08 10:34:08;;;;;;;19.30;12.05;;;;;;;;;;5013043;28;20121;-66
2021/06/08 10:36:35;;;;;;;17.95;13.48;;;;;;;;;;5011705;28;20056;-68
2021/06/08 10:39:03;;;;;;;16.67;13.38;;;;;;;;;;4994845;28;20052;-66
2021/06/08 10:41:32;;;;;;;16.25;11.65;;;;;;;;;;5012870;28;20437;-65
2021/06/08 10:43:58;;;;;;;16.65;12.13;;;;;;;;;;5012353;28;20014;-66
2021/06/08 10:46:26;;;;;;;17.10;14.02;;;;;;;;;;5011161;28;20483;-68
2021/06/08 10:48:52;;;;;;;17.90;12.43;;;;;;;;;;5012997;28;20030;-69
2021/06/08 10:51:20;;;;;;;14.68;12.93;;;;;;;;;;4995005;28;20057;-66
2021/06/08 10:53:49;;;;;;;15.25;11.32;;;;;;;;;;5012668;28;20029;-68
2021/06/08 10:56:21;;;;;;;14.63;11.38;;;;;;;;;;5011836;28;20041;-68
2021/06/08 10:58:53;;;;;;;17.98;12.43;;;;;;;;;;5006666;28;20196;-68
2021/06/08 11:01:31;;;;;;;16.48;12.82;;;;;;;;;;5029998;28;20010;-66
2021/06/08 11:04:00;;;;;;;15.20;11.68;;;;;;;;;;5030108;28;20021;-67
2021/06/08 11:06:38;;;;;;;11.63;10.43;;;;;;;;;;5027589;28;20014;-69
2021/06/08 11:09:08;;;;;;;13.18;11.05;;;;;;;;;;5011352;28;20018;-67
2021/06/08 11:11:41;;;;;;;15.90;11.50;;;;;;;;;;5011836;28;20277;-69
2021/06/08 11:14:07;;;;;;;15.88;12.15;;;;;;;;;;5018975;28;20396;-69
2021/06/08 11:16:34;;;;;;;14.85;11.43;;;;;;;;;;5011792;28;20376;-68
2021/06/08 11:19:00;;;;;;;13.82;10.75;;;;;;;;;;5030225;28;20013;-67
2021/06/08 11:21:27;;;;;;;14.40;11.27;;;;;;;;;;5030537;28;20028;-67
2021/06/08 11:23:54;;;;;;;13.10;10.82;;;;;;;;;;5031342;28;20057;-67
2021/06/08 11:26:38;;;;;;;15.60;11.77;;;;;;;;;;5030744;28;20044;-69
2021/06/08 11:29:04;;;;;;;16.38;10.30;;;;;;;;;;5031184;28;20040;-67
2021/06/08 11:31:48;;;;;;;14.80;10.70;;;;;;;;;;5031190;28;20022;-66
2021/06/08 11:34:14;;;;;;;12.85;10.35;;;;;;;;;;5013395;28;20029;-68
2021/06/08 11:36:40;;;;;;;11.00;9.90;;;;;;;;;;5030076;28;20112;-66
2021/06/08 11:39:19;;;;;;;12.70;10.05;;;;;;;;;;5030806;28;20033;-66
2021/06/08 11:41:55;;;;;;;11.95;9.57;;;;;;;;;;5031155;28;20049;-67
2021/06/08 11:44:21;;;;;;;12.93;9.70;;;;;;;;;;5030883;28;20029;-68
2021/06/08 11:46:53;;;;;;;14.75;9.80;;;;;;;;;;5029980;28;20654;-68
2021/06/08 11:49:20;;;;;;;13.05;10.35;;;;;;;;;;5013241;28;20124;-66
2021/06/08 11:51:51;;;;;;;14.50;10.80;;;;;;;;;;5030873;28;20029;-67
2021/06/08 11:54:19;;;;;;;12.27;9.75;;;;;;;;;;5030997;28;20022;-65
2021/06/08 11:56:50;;;;;;;13.88;9.50;;;;;;;;;;5030168;28;20025;-67
2021/06/08 11:59:16;;;;;;;;;;;;;;;;;;5014939;28;20021;-66
2021/06/08 12:01:47;;;;;;;11.30;8.77;;;;;;;;;;5023475;28;20299;-67
2021/06/08 12:04:14;;;;;;;12.13;8.55;;;;;;;;;;5011028;28;20387;-68
2021/06/08 12:06:55;;;;;;;10.40;9.25;;;;;;;;;;5034495;28;20021;-66
2021/06/08 12:09:22;;;;;;;10.35;9.10;;;;;;;;;;5015233;28;20510;-68
2021/06/08 12:11:51;;;;;;;13.98;8.77;;;;;;;;;;5015296;28;20137;-66
2021/06/08 12:14:19;;;;;;;9.70;8.25;;;;;;;;;;5031083;28;20029;-67
2021/06/08 12:16:48;;;;;;;9.43;7.32;;;;;;;;;;5034070;28;20032;-68
2021/06/08 12:19:14;;;;;;;9.90;7.70;;;;;;;;;;5034584;28;20487;-67
2021/06/08 12:21:44;;;;;;;12.98;7.80;;;;;;;;;;5016737;28;20125;-66
2021/06/08 12:24:15;;;;;;;8.38;6.50;;;;;;;;;;5032539;28;20026;-67
2021/06/08 12:26:50;;;;;;;9.90;7.82;;;;;;;;;;5014341;28;20041;-67
2021/06/08 12:29:16;;;;;;;10.70;6.82;;;;;;;;;;5014521;28;20380;-68
2021/06/08 12:31:52;;;;;;;11.13;6.22;;;;;;;;;;5014808;28;20034;-67
2021/06/08 12:34:19;;;;;;;10.40;6.95;;;;;;;;;;5022892;28;20446;-67
2021/06/08 12:36:47;;;;;;;9.05;6.60;;;;;;;;;;5032731;28;20032;-68
2021/06/08 12:39:14;;;;;;;7.75;6.95;;;;;;;;;;5016632;28;20368;-68
2021/06/08 12:41:40;;;;;;;9.55;6.22;;;;;;;;;;5034395;28;20030;-68
2021/06/08 12:44:06;;;;;;;10.13;7.60;;;;;;;;;;5016414;28;20025;-68
2021/06/08 12:46:36;;;;;;;9.98;7.82;;;;;;;;;;5033769;28;20458;-67
2021/06/08 12:49:02;;;;;;;9.63;7.55;;;;;;;;;;5034057;28;20041;-68
2021/06/08 12:51:37;;;;;;;13.48;7.35;;;;;;;;;;5034025;28;20060;-69
2021/06/08 12:54:03;;;;;;;7.65;5.75;;;;;;;;;;5034330;28;20035;-68
2021/06/08 12:56:29;;;;;;;6.70;6.00;;;;;;;;;;5033384;28;20018;-68
2021/06/08 12:58:56;;;;;;;10.43;6.03;;;;;;;;;;5015560;28;20053;-69
2021/06/08 13:01:22;;;;;;;8.82;6.15;;;;;;;;;;5033553;28;20033;-67
2021/06/08 13:03:49;;;;;;;11.40;6.38;;;;;;;;;;5033838;28;20047;-69
2021/06/08 13:06:19;;;;;;;6.32;5.50;;;;;;;;;;5033059;28;20037;-69
2021/06/08 13:08:48;;;;;;;8.20;5.93;;;;;;;;;;5033346;28;20025;-69
2021/06/08 13:11:16;;;;;;;8.05;6.35;;;29.00;36.60;;;;;;5033140;28;20025;-69
2021/06/08 13:13:42;;;;;;;14.20;6.40;;;29.10;35.10;;;;;;5033631;28;20399;-69
2021/06/08 13:16:10;;;;;;;7.15;6.07;;;29.30;34.50;;;;;;5032907;28;20018;-68
2021/06/08 13:18:44;;;;;;;14.75;5.72;;;29.50;35.70;;;;;;5033515;28;20075;-68
2021/06/08 13:21:10;;;;;;;6.75;6.07;;;29.90;34.30;;;;;;5031396;28;20022;-67
2021/06/08 13:23:36;;;;;;;7.32;6.38;;;30.00;34.40;;;;;;4996299;28;20495;-69
2021/06/08 13:26:10;;;;;;;8.82;7.05;;;30.10;33.60;;;;;;5013094;28;20030;-65
2021/06/08 13:28:42;;;;;;;10.38;6.68;;;30.00;33.90;;;;;;5013421;28;20041;-70
2021/06/08 13:31:12;;;;;;;8.77;6.72;;;30.00;34.70;;;;;;4995795;28;20036;-65
2021/06/08 13:33:40;;;;;;;7.35;6.65;;;30.00;34.90;;;;;;5013401;28;20022;-64
2021/06/08 13:36:07;;;;;;;10.15;7.65;;;;;;;;;;5013047;28;20407;-66
2021/06/08 13:38:33;;;;;;;8.95;7.13;;;;;;;;;;5022449;28;20555;-68
2021/06/08 13:40:59;;;;;;;8.68;6.53;;;;;;;;;;5032979;28;20186;-67
2021/06/08 13:43:25;;;;;;;9.38;7.18;;;;;;;;;;5033249;28;20079;-67
2021/06/08 13:45:54;;;;;;;9.98;6.47;;;;;;;;;;5032969;28;20036;-68
2021/06/08 13:48:28;;;;;;;11.25;6.63;;;;;;;;;;5032273;28;20025;-68
2021/06/08 13:51:13;;;;;;;11.52;6.97;;;;;;;;;;5015290;28;20068;-68
2021/06/08 13:53:39;;;;;;;8.73;7.82;;;;;;;;;;5014793;28;20530;-67
2021/06/08 13:56:24;;;;;;;9.15;7.07;;;;;;;;;;5032367;28;20021;-68
2021/06/08 14:01:38;;;;;;;10.07;6.78;;;;;;;;;;5033381;28;20053;-68
2021/06/08 14:04:08;;;;;;;8.48;7.57;;;;;;;;;;5017298;28;20060;-68
2021/06/08 14:06:35;;;;;;;12.57;7.55;;;;;;;;;;5027951;28;20551;-70
2021/06/08 14:09:11;;;;;;;10.05;7.28;;;;;;;;;;5032129;28;20045;-69
2021/06/08 14:11:38;;;;;;;10.38;7.43;;;;;;;;;;5031745;28;20021;-68
2021/06/08 14:14:05;;;;;;;8.02;7.32;;;;;;;;;;5031584;28;20156;-68
2021/06/08 14:16:31;;;;;;;12.07;7.22;;;;;;;;;;5031067;28;20033;-68
2021/06/08 14:18:57;;;;;;;11.38;7.32;;;;;;;;;;5031686;28;20032;-68
2021/06/08 14:21:23;;;;;;;9.32;7.90;;;;;;;;;;5031558;28;20029;-67
2021/06/08 14:23:55;;;;;;;8.68;7.75;;;;;;;;;;5011589;28;20029;-68
2021/06/08 14:26:21;;;;;;;;;;;;;;;;;;5030497;28;20095;-68
2021/06/08 14:28:47;;;;;;;10.07;7.95;;;;;;;;;;5013862;28;19948;-68